Terminal Aerodrome Forecast
Issued by NWS

Home | Current Version | Previous Version | Text Only | Print | Product List | Glossary On
Versions: 1 2 3 4 5 6 7 8 9 10 11 12 13 14 15 16 17 18 19 20 21 22 23 24 25 26 27 28 29 30 31 32 33 34 35 36 37 38 39 40
000
FTUS44 KLIX 181700
TAFHUM
TAF
KHUM 181721Z 1818/1918 11004KT P6SM BKN025 OVC250
     FM190000 08004KT P6SM VCTS SCT025CB BKN080
     FM190700 07005KT P6SM VCTS BKN025CB
     FM191300 08006KT P6SM BKN050=

USA.gov is the U.S. government's official web portal to all federal, state and local government web resources and services.